Aviation Digital Data Service (ADDS)

Output produced by METARs form (1142 UTC 23 February 2017)
found at http://aviationweather.gov/adds/metars/
 
KISP 231131Z 2312/2412 VRB02KT 1/2SM FG BKN002 
     FM231500 20006KT 3SM BR BKN005 
     FM231900 20008KT P6SM BKN020 
     FM240100 21003KT 6SM BR OVC020 
     FM240500 19003KT 1/2SM FG OVC003